Strona główna
METAR-TAF:

METAR-TAF

Lotnisko :

Port lotniczy Kunovice

Uherské Hradiště, Czechy

Szerokość geograficzna: 49-01-46N, Długość geograficzna: 017-26-23E, wysokość: 177 m

Aktualna obserwacja pogody

Raport powstał 4 godziny i 58 minut temu, godzina 12:00 UTC
Wiatr 5 kt od południowy wschód, zmienny między wschód i południe
Temperatura 25°C
Wilgotność 54%
Ciśnienie 1018 hPa
Widzialność 10 km lub więcej
Przerywane chmury na wysokości 4300 ft, Cumulusy wypiętrznone.

METAR: LKKU 231200Z 14005KT 080V190 9999 BKN043TCU 25/15 Q1018

czas: 18:58 (16:58 UTC)


TAF: brakujący

Obserwacja i prognoza pogody dla ponad 4000 lotnisk (raport METAR i TAF).

Dostępne stacje oznaczono żółtymi i czerwonymi punktami na mapie.

Najedź kursorem aby zobaczyć nazwę stacji.

Kliknij aby zobaczyć obserwacje i prognozy pogody.

Aby zmienić mapę: kliknij na zielony przycisk z czarnym krzyżykiem, aby powiększyć; na zielony przycisk z myślnikiem, aby pomniejszyć; na zielone strzałki, aby przejść do map sąsiednich.


METAR-TAF: